sensor_id;sensor_type;location;lat;lon;timestamp;temperature;humidity
52321;DHT22;38261;54.090;13.382;2023-08-20T19:06:53;20.70;99.90
52321;DHT22;38261;54.090;13.382;2023-08-20T19:08:15;20.80;99.90
52321;DHT22;38261;54.090;13.382;2023-08-20T19:09:40;20.70;99.90
52321;DHT22;38261;54.090;13.382;2023-08-20T19:11:02;20.70;99.90
52321;DHT22;38261;54.090;13.382;2023-08-20T19:12:29;20.70;99.90
52321;DHT22;38261;54.090;13.382;2023-08-20T19:13:51;20.60;99.90
52321;DHT22;38261;54.090;13.382;2023-08-20T19:15:17;20.60;99.90
52321;DHT22;38261;54.090;13.382;2023-08-20T19:16:39;20.60;99.90
52321;DHT22;38261;54.090;13.382;2023-08-20T19:18:02;20.50;99.90
52321;DHT22;38261;54.090;13.382;2023-08-20T19:19:24;20.50;99.90
52321;DHT22;38261;54.090;13.382;2023-08-20T19:20:50;20.40;99.90
52321;DHT22;38261;54.090;13.382;2023-08-20T19:22:12;20.40;99.90
52321;DHT22;38261;54.090;13.382;2023-08-20T19:23:35;20.40;99.90
52321;DHT22;38261;54.090;13.382;2023-08-20T19:24:58;20.40;99.90
52321;DHT22;38261;54.090;13.382;2023-08-20T19:26:21;20.30;99.90
52321;DHT22;38261;54.090;13.382;2023-08-20T19:27:44;20.30;99.90
52321;DHT22;38261;54.090;13.382;2023-08-20T19:29:06;20.20;99.90
52321;DHT22;38261;54.090;13.382;2023-08-20T19:30:29;20.20;99.90
52321;DHT22;38261;54.090;13.382;2023-08-20T19:31:51;20.20;99.90
52321;DHT22;38261;54.090;13.382;2023-08-20T19:33:14;20.10;99.90
52321;DHT22;38261;54.090;13.382;2023-08-20T19:34:37;20.10;99.90
52321;DHT22;38261;54.090;13.382;2023-08-20T19:36:00;20.10;99.90
52321;DHT22;38261;54.090;13.382;2023-08-20T19:37:22;20.00;99.90
52321;DHT22;38261;54.090;13.382;2023-08-20T19:38:45;20.00;99.90
52321;DHT22;38261;54.090;13.382;2023-08-20T19:40:07;20.00;99.90
52321;DHT22;38261;54.090;13.382;2023-08-20T19:41:31;19.90;99.90
52321;DHT22;38261;54.090;13.382;2023-08-20T19:42:53;19.90;99.90
52321;DHT22;38261;54.090;13.382;2023-08-20T19:44:15;19.90;99.90
52321;DHT22;38261;54.090;13.382;2023-08-20T19:45:37;19.80;99.90
52321;DHT22;38261;54.090;13.382;2023-08-20T19:46:59;19.80;99.90
52321;DHT22;38261;54.090;13.382;2023-08-20T19:48:23;19.80;99.90
52321;DHT22;38261;54.090;13.382;2023-08-20T19:49:45;19.80;99.90
52321;DHT22;38261;54.090;13.382;2023-08-20T19:51:08;19.80;99.90
52321;DHT22;38261;54.090;13.382;2023-08-20T19:52:30;19.80;99.90
52321;DHT22;38261;54.090;13.382;2023-08-20T19:53:52;19.70;99.90
52321;DHT22;38261;54.090;13.382;2023-08-20T19:55:14;19.70;99.90
52321;DHT22;38261;54.090;13.382;2023-08-20T19:56:36;19.70;99.90
52321;DHT22;38261;54.090;13.382;2023-08-20T19:57:58;19.70;99.90
52321;DHT22;38261;54.090;13.382;2023-08-20T19:59:22;19.70;99.90
52321;DHT22;38261;54.090;13.382;2023-08-20T20:00:44;19.70;99.90
52321;DHT22;38261;54.090;13.382;2023-08-20T20:02:07;19.60;99.90
52321;DHT22;38261;54.090;13.382;2023-08-20T20:03:29;19.60;99.90
52321;DHT22;38261;54.090;13.382;2023-08-20T20:04:51;19.60;99.90
52321;DHT22;38261;54.090;13.382;2023-08-20T20:06:14;19.60;99.90
52321;DHT22;38261;54.090;13.382;2023-08-20T20:07:36;19.60;99.90
52321;DHT22;38261;54.090;13.382;2023-08-20T20:08:58;19.50;99.90
52321;DHT22;38261;54.090;13.382;2023-08-20T20:10:20;19.50;99.90
52321;DHT22;38261;54.090;13.382;2023-08-20T20:11:43;19.50;99.90
52321;DHT22;38261;54.090;13.382;2023-08-20T20:13:05;19.50;99.90
52321;DHT22;38261;54.090;13.382;2023-08-20T20:14:27;19.50;99.90
52321;DHT22;38261;54.090;13.382;2023-08-20T20:15:50;19.40;99.90
52321;DHT22;38261;54.090;13.382;2023-08-20T20:17:12;19.40;99.90
52321;DHT22;38261;54.090;13.382;2023-08-20T20:18:34;19.40;99.90
52321;DHT22;38261;54.090;13.382;2023-08-20T20:19:56;19.40;99.90
52321;DHT22;38261;54.090;13.382;2023-08-20T20:21:18;19.30;99.90
52321;DHT22;38261;54.090;13.382;2023-08-20T20:22:41;19.30;99.90
52321;DHT22;38261;54.090;13.382;2023-08-20T20:24:03;19.20;99.90
52321;DHT22;38261;54.090;13.382;2023-08-20T20:25:25;19.30;99.90
52321;DHT22;38261;54.090;13.382;2023-08-20T20:26:47;19.30;99.90
52321;DHT22;38261;54.090;13.382;2023-08-20T20:28:10;19.30;99.90
52321;DHT22;38261;54.090;13.382;2023-08-20T20:29:32;19.20;99.90
52321;DHT22;38261;54.090;13.382;2023-08-20T20:30:54;19.20;99.90
52321;DHT22;38261;54.090;13.382;2023-08-20T20:32:16;19.20;99.90
52321;DHT22;38261;54.090;13.382;2023-08-20T20:33:40;19.20;99.90
52321;DHT22;38261;54.090;13.382;2023-08-20T20:35:02;19.10;99.90
52321;DHT22;38261;54.090;13.382;2023-08-20T20:36:25;19.10;99.90
52321;DHT22;38261;54.090;13.382;2023-08-20T20:37:47;19.10;99.90
52321;DHT22;38261;54.090;13.382;2023-08-20T20:39:09;19.10;99.90
52321;DHT22;38261;54.090;13.382;2023-08-20T20:40:31;19.00;99.90
52321;DHT22;38261;54.090;13.382;2023-08-20T20:41:54;19.00;99.90
52321;DHT22;38261;54.090;13.382;2023-08-20T20:43:16;19.00;99.90
52321;DHT22;38261;54.090;13.382;2023-08-20T20:44:39;19.00;99.90
52321;DHT22;38261;54.090;13.382;2023-08-20T20:46:02;18.90;99.90
52321;DHT22;38261;54.090;13.382;2023-08-20T20:47:24;18.90;99.90
52321;DHT22;38261;54.090;13.382;2023-08-20T20:48:47;18.90;99.90
52321;DHT22;38261;54.090;13.382;2023-08-20T20:50:09;18.90;99.90
52321;DHT22;38261;54.090;13.382;2023-08-20T20:51:31;18.90;99.90
52321;DHT22;38261;54.090;13.382;2023-08-20T20:52:53;18.90;99.90
52321;DHT22;38261;54.090;13.382;2023-08-20T20:54:15;18.80;99.90
52321;DHT22;38261;54.090;13.382;2023-08-20T20:55:38;18.80;99.90
52321;DHT22;38261;54.090;13.382;2023-08-20T20:57:00;18.80;99.90
52321;DHT22;38261;54.090;13.382;2023-08-20T20:58:22;18.80;99.90
52321;DHT22;38261;54.090;13.382;2023-08-20T20:59:44;18.80;99.90
52321;DHT22;38261;54.090;13.382;2023-08-20T21:01:07;18.80;99.90
52321;DHT22;38261;54.090;13.382;2023-08-20T21:02:29;18.80;99.90
52321;DHT22;38261;54.090;13.382;2023-08-20T21:03:54;18.70;99.90
52321;DHT22;38261;54.090;13.382;2023-08-20T21:05:16;18.70;99.90
52321;DHT22;38261;54.090;13.382;2023-08-20T21:06:38;18.70;99.90
52321;DHT22;38261;54.090;13.382;2023-08-20T21:08:01;18.70;99.90
52321;DHT22;38261;54.090;13.382;2023-08-20T21:09:23;18.70;99.90
52321;DHT22;38261;54.090;13.382;2023-08-20T21:10:45;18.60;99.90
52321;DHT22;38261;54.090;13.382;2023-08-20T21:12:07;18.60;99.90
52321;DHT22;38261;54.090;13.382;2023-08-20T21:13:29;18.60;99.90
52321;DHT22;38261;54.090;13.382;2023-08-20T21:14:51;18.60;99.90
52321;DHT22;38261;54.090;13.382;2023-08-20T21:16:14;18.60;99.90
52321;DHT22;38261;54.090;13.382;2023-08-20T21:17:36;18.60;99.90
52321;DHT22;38261;54.090;13.382;2023-08-20T21:18:58;18.60;99.90
52321;DHT22;38261;54.090;13.382;2023-08-20T21:20:21;18.50;99.90
52321;DHT22;38261;54.090;13.382;2023-08-20T21:21:43;18.50;99.90
52321;DHT22;38261;54.090;13.382;2023-08-20T21:23:05;18.50;99.90
52321;DHT22;38261;54.090;13.382;2023-08-20T21:24:28;18.40;99.90
52321;DHT22;38261;54.090;13.382;2023-08-20T21:25:51;18.40;99.90
52321;DHT22;38261;54.090;13.382;2023-08-20T21:27:13;18.40;99.90
52321;DHT22;38261;54.090;13.382;2023-08-20T21:28:36;18.40;99.90
52321;DHT22;38261;54.090;13.382;2023-08-20T21:29:58;18.30;99.90
52321;DHT22;38261;54.090;13.382;2023-08-20T21:31:20;18.30;99.90
52321;DHT22;38261;54.090;13.382;2023-08-20T21:32:42;18.30;99.90
52321;DHT22;38261;54.090;13.382;2023-08-20T21:34:05;18.30;99.90
52321;DHT22;38261;54.090;13.382;2023-08-20T21:35:27;18.30;99.90
52321;DHT22;38261;54.090;13.382;2023-08-20T21:36:49;18.30;99.90
52321;DHT22;38261;54.090;13.382;2023-08-20T21:38:11;18.20;99.90
52321;DHT22;38261;54.090;13.382;2023-08-20T21:39:33;18.20;99.90
52321;DHT22;38261;54.090;13.382;2023-08-20T21:40:55;18.20;99.90
52321;DHT22;38261;54.090;13.382;2023-08-20T21:42:17;18.20;99.90
52321;DHT22;38261;54.090;13.382;2023-08-20T21:43:40;18.20;99.90
52321;DHT22;38261;54.090;13.382;2023-08-20T21:45:02;18.20;99.90
52321;DHT22;38261;54.090;13.382;2023-08-20T21:46:25;18.20;99.90
52321;DHT22;38261;54.090;13.382;2023-08-20T21:47:47;18.10;99.90
52321;DHT22;38261;54.090;13.382;2023-08-20T21:49:10;18.10;99.90
52321;DHT22;38261;54.090;13.382;2023-08-20T21:50:32;18.10;99.90
52321;DHT22;38261;54.090;13.382;2023-08-20T21:51:54;18.10;99.90
52321;DHT22;38261;54.090;13.382;2023-08-20T21:53:16;18.10;99.90
52321;DHT22;38261;54.090;13.382;2023-08-20T21:54:38;18.10;99.90
52321;DHT22;38261;54.090;13.382;2023-08-20T21:56:00;18.00;99.90
52321;DHT22;38261;54.090;13.382;2023-08-20T21:57:23;18.00;99.90
52321;DHT22;38261;54.090;13.382;2023-08-20T21:58:45;18.00;99.90
52321;DHT22;38261;54.090;13.382;2023-08-20T22:00:07;18.00;99.90
52321;DHT22;38261;54.090;13.382;2023-08-20T22:01:36;18.00;99.90
52321;DHT22;38261;54.090;13.382;2023-08-20T22:02:58;18.00;99.90
52321;DHT22;38261;54.090;13.382;2023-08-20T22:04:20;17.90;99.90
52321;DHT22;38261;54.090;13.382;2023-08-20T22:05:43;17.90;99.90
52321;DHT22;38261;54.090;13.382;2023-08-20T22:07:05;17.90;99.90
52321;DHT22;38261;54.090;13.382;2023-08-20T22:08:28;17.90;99.90
52321;DHT22;38261;54.090;13.382;2023-08-20T22:09:50;17.90;99.90
52321;DHT22;38261;54.090;13.382;2023-08-20T22:11:12;17.90;99.90
52321;DHT22;38261;54.090;13.382;2023-08-20T22:12:35;17.90;99.90
52321;DHT22;38261;54.090;13.382;2023-08-20T22:13:57;17.80;99.90
52321;DHT22;38261;54.090;13.382;2023-08-20T22:15:19;17.90;99.90
52321;DHT22;38261;54.090;13.382;2023-08-20T22:16:41;17.80;99.90
52321;DHT22;38261;54.090;13.382;2023-08-20T22:18:21;17.80;99.90
52321;DHT22;38261;54.090;13.382;2023-08-20T22:19:44;17.80;99.90
52321;DHT22;38261;54.090;13.382;2023-08-20T22:21:06;17.80;99.90
52321;DHT22;38261;54.090;13.382;2023-08-20T22:22:28;17.80;99.90
52321;DHT22;38261;54.090;13.382;2023-08-20T22:23:50;17.80;99.90
52321;DHT22;38261;54.090;13.382;2023-08-20T22:25:13;17.80;99.90
52321;DHT22;38261;54.090;13.382;2023-08-20T22:26:35;17.70;99.90
52321;DHT22;38261;54.090;13.382;2023-08-20T22:27:57;17.70;99.90
52321;DHT22;38261;54.090;13.382;2023-08-20T22:29:19;17.70;99.90
52321;DHT22;38261;54.090;13.382;2023-08-20T22:30:44;17.70;99.90
52321;DHT22;38261;54.090;13.382;2023-08-20T22:32:06;17.70;99.90
52321;DHT22;38261;54.090;13.382;2023-08-20T22:33:28;17.70;99.90
52321;DHT22;38261;54.090;13.382;2023-08-20T22:34:51;17.70;99.90
52321;DHT22;38261;54.090;13.382;2023-08-20T22:36:13;17.60;99.90
52321;DHT22;38261;54.090;13.382;2023-08-20T22:37:35;17.60;99.90
52321;DHT22;38261;54.090;13.382;2023-08-20T22:38:57;17.70;99.90
52321;DHT22;38261;54.090;13.382;2023-08-20T22:40:20;17.70;99.90
52321;DHT22;38261;54.090;13.382;2023-08-20T22:41:42;17.70;99.90
52321;DHT22;38261;54.090;13.382;2023-08-20T22:43:04;17.70;99.90
52321;DHT22;38261;54.090;13.382;2023-08-20T22:44:26;17.70;99.90
52321;DHT22;38261;54.090;13.382;2023-08-20T22:45:48;17.70;99.90
52321;DHT22;38261;54.090;13.382;2023-08-20T22:47:11;17.70;99.90
52321;DHT22;38261;54.090;13.382;2023-08-20T22:48:33;17.70;99.90
52321;DHT22;38261;54.090;13.382;2023-08-20T22:49:55;17.70;99.90
52321;DHT22;38261;54.090;13.382;2023-08-20T22:51:17;17.70;99.90
52321;DHT22;38261;54.090;13.382;2023-08-20T22:52:39;17.70;99.90
52321;DHT22;38261;54.090;13.382;2023-08-20T22:54:01;17.70;99.90
52321;DHT22;38261;54.090;13.382;2023-08-20T22:55:24;17.70;99.90
52321;DHT22;38261;54.090;13.382;2023-08-20T22:56:46;17.60;99.90
52321;DHT22;38261;54.090;13.382;2023-08-20T22:58:08;17.60;99.90
52321;DHT22;38261;54.090;13.382;2023-08-20T22:59:31;17.60;99.90
52321;DHT22;38261;54.090;13.382;2023-08-20T23:00:53;17.60;99.90
52321;DHT22;38261;54.090;13.382;2023-08-20T23:02:15;17.60;99.90
52321;DHT22;38261;54.090;13.382;2023-08-20T23:03:38;17.60;99.90
52321;DHT22;38261;54.090;13.382;2023-08-20T23:05:00;17.50;99.90
52321;DHT22;38261;54.090;13.382;2023-08-20T23:06:22;17.50;99.90
52321;DHT22;38261;54.090;13.382;2023-08-20T23:07:45;17.50;99.90
52321;DHT22;38261;54.090;13.382;2023-08-20T23:09:07;17.50;99.90
52321;DHT22;38261;54.090;13.382;2023-08-20T23:10:29;17.40;99.90
52321;DHT22;38261;54.090;13.382;2023-08-20T23:11:51;17.50;99.90
52321;DHT22;38261;54.090;13.382;2023-08-20T23:13:15;17.40;99.90
52321;DHT22;38261;54.090;13.382;2023-08-20T23:14:37;17.50;99.90
52321;DHT22;38261;54.090;13.382;2023-08-20T23:15:59;17.50;99.90
52321;DHT22;38261;54.090;13.382;2023-08-20T23:17:21;17.40;99.90
52321;DHT22;38261;54.090;13.382;2023-08-20T23:18:44;17.40;99.90
52321;DHT22;38261;54.090;13.382;2023-08-20T23:20:06;17.40;99.90
52321;DHT22;38261;54.090;13.382;2023-08-20T23:21:29;17.40;99.90
52321;DHT22;38261;54.090;13.382;2023-08-20T23:22:51;17.40;99.90
52321;DHT22;38261;54.090;13.382;2023-08-20T23:24:13;17.40;99.90
52321;DHT22;38261;54.090;13.382;2023-08-20T23:25:35;17.50;99.90
52321;DHT22;38261;54.090;13.382;2023-08-20T23:26:57;17.50;99.90
52321;DHT22;38261;54.090;13.382;2023-08-20T23:28:19;17.40;99.90
52321;DHT22;38261;54.090;13.382;2023-08-20T23:29:46;17.50;99.90
52321;DHT22;38261;54.090;13.382;2023-08-20T23:31:08;17.50;99.90
52321;DHT22;38261;54.090;13.382;2023-08-20T23:32:32;17.50;99.90
52321;DHT22;38261;54.090;13.382;2023-08-20T23:33:54;17.40;99.90
52321;DHT22;38261;54.090;13.382;2023-08-20T23:35:17;17.40;99.90
52321;DHT22;38261;54.090;13.382;2023-08-20T23:36:39;17.40;99.90
52321;DHT22;38261;54.090;13.382;2023-08-20T23:38:01;17.40;99.90
52321;DHT22;38261;54.090;13.382;2023-08-20T23:39:23;17.30;99.90
52321;DHT22;38261;54.090;13.382;2023-08-20T23:40:46;17.30;99.90
52321;DHT22;38261;54.090;13.382;2023-08-20T23:42:08;17.30;99.90
52321;DHT22;38261;54.090;13.382;2023-08-20T23:43:30;17.30;99.90
52321;DHT22;38261;54.090;13.382;2023-08-20T23:44:52;17.20;99.90
52321;DHT22;38261;54.090;13.382;2023-08-20T23:46:14;17.20;99.90
52321;DHT22;38261;54.090;13.382;2023-08-20T23:47:36;17.20;99.90
52321;DHT22;38261;54.090;13.382;2023-08-20T23:48:58;17.10;99.90
52321;DHT22;38261;54.090;13.382;2023-08-20T23:50:20;17.10;99.90
52321;DHT22;38261;54.090;13.382;2023-08-20T23:51:43;17.10;99.90
52321;DHT22;38261;54.090;13.382;2023-08-20T23:53:05;17.10;99.90
52321;DHT22;38261;54.090;13.382;2023-08-20T23:54:27;17.10;99.90
52321;DHT22;38261;54.090;13.382;2023-08-20T23:55:49;17.10;99.90
52321;DHT22;38261;54.090;13.382;2023-08-20T23:57:11;17.10;99.90
52321;DHT22;38261;54.090;13.382;2023-08-20T23:58:36;17.10;99.90
52321;DHT22;38261;54.090;13.382;2023-08-20T23:59:58;17.10;99.90
